createdAt,value
2023-04-18T00:01:25.019Z,5.07
2023-04-18T00:03:52.155Z,5.32
2023-04-18T00:06:19.422Z,5.18
2023-04-18T00:08:45.922Z,5.00
2023-04-18T00:11:12.351Z,6.30
2023-04-18T00:13:39.388Z,5.82
2023-04-18T00:16:07.838Z,6.03
2023-04-18T00:18:34.599Z,6.65
2023-04-18T00:21:02.035Z,6.10
2023-04-18T00:23:30.370Z,6.78
2023-04-18T00:25:56.884Z,6.03
2023-04-18T00:28:23.528Z,6.07
2023-04-18T00:30:50.412Z,6.22
2023-04-18T00:33:17.146Z,6.45
2023-04-18T00:35:43.814Z,5.80
2023-04-18T00:38:10.563Z,6.10
2023-04-18T00:40:37.925Z,6.05
2023-04-18T00:43:04.572Z,5.63
2023-04-18T00:45:39.013Z,6.00
2023-04-18T00:48:10.359Z,5.80
2023-04-18T00:50:43.669Z,6.43
2023-04-18T00:53:11.036Z,5.85
2023-04-18T00:55:38.788Z,5.85
2023-04-18T00:58:06.393Z,5.30
2023-04-18T01:00:32.981Z,5.63
2023-04-18T01:03:00.242Z,5.72
2023-04-18T01:05:27.091Z,5.53
2023-04-18T01:07:58.742Z,5.70
2023-04-18T01:10:26.007Z,5.90
2023-04-18T01:13:10.445Z,5.43
2023-04-18T01:15:37.238Z,5.63
2023-04-18T01:18:03.993Z,5.90
2023-04-18T01:20:31.356Z,5.90
2023-04-18T01:22:58.522Z,5.97
2023-04-18T01:25:25.032Z,5.07
2023-04-18T01:27:51.713Z,6.00
2023-04-18T01:30:18.411Z,5.63
2023-04-18T01:32:45.016Z,5.38
2023-04-18T01:35:11.686Z,5.03
2023-04-18T01:37:38.209Z,5.50
2023-04-18T01:40:05.272Z,5.43
2023-04-18T01:42:31.846Z,6.30
2023-04-18T01:44:58.289Z,5.32
2023-04-18T01:47:24.736Z,6.32
2023-04-18T01:49:51.193Z,5.85
2023-04-18T01:52:17.622Z,5.43
2023-04-18T01:54:44.078Z,5.80
2023-04-18T01:57:10.539Z,6.13
2023-04-18T01:59:36.997Z,5.22
2023-04-18T02:02:03.699Z,5.78
2023-04-18T02:04:30.260Z,6.00
2023-04-18T02:06:56.770Z,5.68
2023-04-18T02:09:23.200Z,6.15
2023-04-18T02:11:49.656Z,5.75
2023-04-18T02:14:16.170Z,5.50
2023-04-18T02:16:42.797Z,5.50
2023-04-18T02:19:09.631Z,5.20
2023-04-18T02:21:36.238Z,5.55
2023-04-18T02:24:02.668Z,5.72
2023-04-18T02:26:29.355Z,5.20
2023-04-18T02:28:55.895Z,5.50
2023-04-18T02:31:22.338Z,5.70
2023-04-18T02:33:48.850Z,6.00
2023-04-18T02:36:15.559Z,5.40
2023-04-18T02:38:42.015Z,5.63
2023-04-18T02:41:08.504Z,5.68
2023-04-18T02:43:35.017Z,6.20
2023-04-18T02:46:01.541Z,5.95
2023-04-18T02:48:28.146Z,6.13
2023-04-18T02:51:03.237Z,6.05
2023-04-18T02:53:29.900Z,6.28
2023-04-18T02:55:56.482Z,5.88
2023-04-18T02:58:23.160Z,5.20
2023-04-18T03:00:52.706Z,5.60
2023-04-18T03:03:19.251Z,5.90
2023-04-18T03:05:46.173Z,5.65
2023-04-18T03:08:12.968Z,6.32
2023-04-18T03:10:40.293Z,5.47
2023-04-18T03:13:09.267Z,5.10
2023-04-18T03:15:35.911Z,5.15
2023-04-18T03:18:04.146Z,5.13
2023-04-18T03:20:30.595Z,5.38
2023-04-18T03:22:56.973Z,5.22
2023-04-18T03:25:23.612Z,5.93
2023-04-18T03:27:50.060Z,5.85
2023-04-18T03:30:17.740Z,6.13
2023-04-18T03:32:44.306Z,5.43
2023-04-18T03:35:11.214Z,5.88
2023-04-18T03:37:37.695Z,5.97
2023-04-18T03:40:05.560Z,5.97
2023-04-18T03:42:32.320Z,6.03
2023-04-18T03:44:58.958Z,6.32
2023-04-18T03:47:25.798Z,7.25
2023-04-18T03:49:54.362Z,6.00
2023-04-18T03:52:24.179Z,6.18
2023-04-18T03:54:50.719Z,6.57
2023-04-18T03:57:17.213Z,6.13
2023-04-18T03:59:45.097Z,6.40
2023-04-18T04:02:12.675Z,6.15
2023-04-18T04:04:39.246Z,6.30
2023-04-18T04:07:05.920Z,5.88
2023-04-18T04:09:32.607Z,6.00
2023-04-18T04:11:59.093Z,6.38
2023-04-18T04:14:25.686Z,5.97
2023-04-18T04:16:52.697Z,5.82
2023-04-18T04:19:19.269Z,6.35
2023-04-18T04:21:45.683Z,7.10
2023-04-18T04:24:13.926Z,6.38
2023-04-18T04:26:42.662Z,6.65
2023-04-18T04:29:10.713Z,6.55
2023-04-18T04:31:37.238Z,9.55
2023-04-18T04:34:04.942Z,8.48
2023-04-18T04:36:33.267Z,6.32
2023-04-18T04:38:59.709Z,6.82
2023-04-18T04:41:26.126Z,7.53
2023-04-18T04:43:53.131Z,7.68
2023-04-18T04:46:20.297Z,7.28
2023-04-18T04:48:46.918Z,8.13
2023-04-18T04:51:13.329Z,9.30
2023-04-18T04:53:39.708Z,6.72
2023-04-18T04:56:07.141Z,6.78
2023-04-18T04:58:33.652Z,7.45
2023-04-18T05:01:00.607Z,7.50
2023-04-18T05:03:27.095Z,7.03
2023-04-18T05:05:53.787Z,7.88
2023-04-18T05:08:20.189Z,8.30
2023-04-18T05:10:47.602Z,7.55
2023-04-18T05:13:14.007Z,8.63
2023-04-18T05:15:40.760Z,9.02
2023-04-18T05:18:07.239Z,8.50
2023-04-18T05:20:36.501Z,7.72
2023-04-18T05:23:02.904Z,7.57
2023-04-18T05:25:29.873Z,7.90
2023-04-18T05:27:56.287Z,7.50
2023-04-18T05:30:22.829Z,7.20
2023-04-18T05:32:49.408Z,7.00
2023-04-18T05:35:16.372Z,7.72
2023-04-18T05:37:42.855Z,9.07
2023-04-18T05:40:09.899Z,13.85
2023-04-18T05:42:36.286Z,8.50
2023-04-18T05:45:02.757Z,10.30
2023-04-18T05:47:30.274Z,10.55
2023-04-18T05:49:56.721Z,8.85
2023-04-18T05:52:23.165Z,8.70
2023-04-18T05:54:49.596Z,8.52
2023-04-18T05:57:16.078Z,8.45
2023-04-18T05:59:42.872Z,8.23
2023-04-18T06:02:13.308Z,8.70
2023-04-18T06:04:42.012Z,9.50
2023-04-18T06:09:35.783Z,9.50
2023-04-18T06:12:02.219Z,13.50
2023-04-18T06:14:28.913Z,10.13
2023-04-18T06:16:55.423Z,7.65
2023-04-18T06:19:22.176Z,8.05
2023-04-18T06:21:49.150Z,8.88
2023-04-18T06:24:16.042Z,7.03
2023-04-18T06:26:42.746Z,8.10
2023-04-18T06:29:12.090Z,7.32
2023-04-18T06:31:38.706Z,7.75
2023-04-18T06:34:06.172Z,7.05
2023-04-18T06:36:32.655Z,7.35
2023-04-18T06:38:59.051Z,6.90
2023-04-18T06:41:25.458Z,6.80
2023-04-18T06:44:02.933Z,8.43
2023-04-18T06:46:30.704Z,17.77
2023-04-18T06:48:57.320Z,14.45
2023-04-18T06:51:23.792Z,6.78
2023-04-18T06:53:52.777Z,9.30
2023-04-18T06:56:20.607Z,6.22
2023-04-18T06:58:47.697Z,7.50
2023-04-18T07:01:14.132Z,6.63
2023-04-18T07:03:40.659Z,8.93
2023-04-18T07:06:08.835Z,6.45
2023-04-18T07:08:35.586Z,5.75
2023-04-18T07:11:02.201Z,6.68
2023-04-18T07:13:28.782Z,7.18
2023-04-18T07:15:55.389Z,8.05
2023-04-18T07:18:34.238Z,6.63
2023-04-18T07:21:07.400Z,7.78
2023-04-18T07:23:34.236Z,6.75
2023-04-18T07:26:02.601Z,7.10
2023-04-18T07:28:29.672Z,6.75
2023-04-18T07:30:56.929Z,6.10
2023-04-18T07:33:23.774Z,6.35
2023-04-18T07:35:52.409Z,6.53
2023-04-18T07:38:18.896Z,6.18
2023-04-18T07:40:45.838Z,5.95
2023-04-18T07:43:12.227Z,5.93
2023-04-18T07:45:38.825Z,6.22
2023-04-18T07:48:05.825Z,5.82
2023-04-18T07:50:32.285Z,8.00
2023-04-18T07:52:58.738Z,5.38
2023-04-18T07:55:25.259Z,7.07
2023-04-18T07:57:51.686Z,5.53
2023-04-18T08:00:18.351Z,6.03
2023-04-18T08:02:46.810Z,6.25
2023-04-18T08:07:39.850Z,5.60
2023-04-18T08:10:07.009Z,5.63
2023-04-18T08:12:33.492Z,5.88
2023-04-18T08:14:59.998Z,5.18
2023-04-18T08:17:26.469Z,5.40
2023-04-18T08:20:05.031Z,5.03
2023-04-18T08:22:31.437Z,6.55
2023-04-18T08:25:05.171Z,7.68
2023-04-18T08:27:32.373Z,7.90
2023-04-18T08:29:58.836Z,7.18
2023-04-18T08:32:25.959Z,5.45
2023-04-18T08:34:52.448Z,12.00
2023-04-18T08:37:18.897Z,5.90
2023-04-18T08:39:45.322Z,6.20
2023-04-18T08:42:15.930Z,5.10
2023-04-18T08:44:42.669Z,6.20
2023-04-18T08:47:09.782Z,4.18
2023-04-18T08:49:36.257Z,4.30
2023-04-18T08:52:09.572Z,4.30
2023-04-18T08:54:38.215Z,3.92
2023-04-18T08:57:12.578Z,4.15
2023-04-18T08:59:40.104Z,3.75
2023-04-18T09:02:08.936Z,4.00
2023-04-18T09:04:52.751Z,4.65
2023-04-18T09:07:27.039Z,5.78
2023-04-18T09:09:56.531Z,11.18
2023-04-18T09:12:28.000Z,4.07
2023-04-18T09:15:15.535Z,4.10
2023-04-18T09:17:50.835Z,4.30
2023-04-18T09:20:35.920Z,4.10
2023-04-18T09:23:10.774Z,4.18
2023-04-18T09:25:44.747Z,3.50
2023-04-18T09:28:31.814Z,3.97
2023-04-18T09:31:07.884Z,4.40
2023-04-18T09:33:34.585Z,4.07
2023-04-18T09:36:23.557Z,3.90
2023-04-18T09:38:55.379Z,4.38
2023-04-18T09:41:23.156Z,3.70
2023-04-18T09:43:49.862Z,4.45
2023-04-18T09:46:17.749Z,4.22
2023-04-18T09:48:44.448Z,3.58
2023-04-18T09:51:15.057Z,4.05
2023-04-18T09:53:47.673Z,4.28
2023-04-18T09:56:27.479Z,5.35
2023-04-18T09:59:09.154Z,4.78
2023-04-18T10:01:36.511Z,4.10
2023-04-18T10:04:06.355Z,4.28
2023-04-18T10:06:34.338Z,3.67
2023-04-18T10:09:04.203Z,3.90
2023-04-18T10:11:31.739Z,4.20
2023-04-18T10:14:02.678Z,4.03
2023-04-18T10:16:29.903Z,3.80
2023-04-18T10:18:56.549Z,3.97
2023-04-18T10:21:22.990Z,4.50
2023-04-18T10:23:50.297Z,3.95
2023-04-18T10:26:16.891Z,3.80
2023-04-18T10:28:57.166Z,3.95
2023-04-18T10:31:25.373Z,3.58
2023-04-18T10:36:28.931Z,3.97
2023-04-18T10:39:21.406Z,3.25
2023-04-18T10:41:50.585Z,6.20
2023-04-18T10:44:24.533Z,5.55
2023-04-18T10:46:51.155Z,5.25
2023-04-18T10:49:25.357Z,4.80
2023-04-18T10:51:55.195Z,4.18
2023-04-18T10:54:51.758Z,3.88
2023-04-18T10:57:18.251Z,4.38
2023-04-18T10:59:48.852Z,4.60
2023-04-18T11:02:26.175Z,4.10
2023-04-18T11:04:54.383Z,3.90
2023-04-18T11:07:34.636Z,4.70
2023-04-18T11:10:02.017Z,4.55
2023-04-18T11:12:36.734Z,6.63
2023-04-18T11:15:10.752Z,6.50
2023-04-18T11:17:40.096Z,7.30
2023-04-18T11:20:14.687Z,6.22
2023-04-18T11:22:51.956Z,5.22
2023-04-18T11:25:22.166Z,5.32
2023-04-18T11:27:51.638Z,5.88
2023-04-18T11:30:18.486Z,4.78
2023-04-18T11:32:47.296Z,4.90
2023-04-18T11:35:15.699Z,5.35
2023-04-18T11:40:09.787Z,4.70
2023-04-18T11:42:40.406Z,5.07
2023-04-18T11:45:14.460Z,4.97
2023-04-18T11:47:42.803Z,5.38
2023-04-18T11:50:11.649Z,4.95
2023-04-18T11:52:40.877Z,5.40
2023-04-18T11:55:19.452Z,5.45
2023-04-18T11:58:00.013Z,5.40
2023-04-18T12:00:41.903Z,5.70
2023-04-18T12:03:16.533Z,5.93
2023-04-18T12:08:11.981Z,5.60
2023-04-18T12:10:46.527Z,6.00
2023-04-18T12:13:13.155Z,5.65
2023-04-18T12:15:41.348Z,5.40
2023-04-18T12:18:10.584Z,4.57
2023-04-18T12:20:39.995Z,4.40
2023-04-18T12:23:06.685Z,4.50
2023-04-18T12:25:33.586Z,4.72
2023-04-18T12:28:02.248Z,4.63
2023-04-18T12:30:35.990Z,4.22
2023-04-18T12:33:04.776Z,4.25
2023-04-18T12:35:32.370Z,4.25
2023-04-18T12:38:00.383Z,4.78
2023-04-18T12:40:27.522Z,5.28
2023-04-18T12:42:54.928Z,5.35
2023-04-18T12:45:22.947Z,4.85
2023-04-18T12:47:51.323Z,4.63
2023-04-18T12:50:20.288Z,5.43
2023-04-18T12:52:46.956Z,4.03
2023-04-18T12:55:14.061Z,8.50
2023-04-18T12:57:42.338Z,5.00
2023-04-18T13:00:13.671Z,5.07
2023-04-18T13:02:45.246Z,4.10
2023-04-18T13:05:13.836Z,5.80
2023-04-18T13:07:42.606Z,5.30
2023-04-18T13:10:14.532Z,5.03
2023-04-18T13:12:41.690Z,4.82
2023-04-18T13:15:09.488Z,5.13
2023-04-18T13:17:36.940Z,5.05
2023-04-18T13:20:06.365Z,4.00
2023-04-18T13:22:33.857Z,4.43
2023-04-18T13:25:00.484Z,4.93
2023-04-18T13:27:27.014Z,5.18
2023-04-18T13:29:53.455Z,5.25
2023-04-18T13:32:19.915Z,6.00
2023-04-18T13:34:47.664Z,4.85
2023-04-18T13:37:15.137Z,13.07
2023-04-18T13:39:41.932Z,5.38
2023-04-18T13:42:09.914Z,6.07
2023-04-18T13:44:38.766Z,5.18
2023-04-18T13:47:06.644Z,6.55
2023-04-18T13:49:34.144Z,5.25
2023-04-18T13:52:00.905Z,5.10
2023-04-18T13:54:28.992Z,5.40
2023-04-18T13:57:02.217Z,4.20
2023-04-18T13:59:30.102Z,5.60
2023-04-18T14:01:56.881Z,6.03
2023-04-18T14:04:23.996Z,5.20
2023-04-18T14:06:50.747Z,6.45
2023-04-18T14:09:18.057Z,5.57
2023-04-18T14:11:45.048Z,5.55
2023-04-18T14:14:11.458Z,6.25
2023-04-18T14:16:40.835Z,6.70
2023-04-18T14:19:07.553Z,4.93
2023-04-18T14:21:34.006Z,9.27
2023-04-18T14:24:00.526Z,6.70
2023-04-18T14:26:26.927Z,6.63
2023-04-18T14:28:53.416Z,6.60
2023-04-18T14:31:19.948Z,8.52
2023-04-18T14:33:47.688Z,5.72
2023-04-18T14:36:15.282Z,5.65
2023-04-18T14:38:42.133Z,6.38
2023-04-18T14:41:08.599Z,5.43
2023-04-18T14:43:35.280Z,6.70
2023-04-18T14:46:01.882Z,5.38
2023-04-18T14:48:28.355Z,5.70
2023-04-18T14:50:59.604Z,5.22
2023-04-18T14:53:27.070Z,5.45
2023-04-18T14:55:53.716Z,5.70
2023-04-18T14:58:20.630Z,4.85
2023-04-18T15:00:47.349Z,5.32
2023-04-18T15:03:13.873Z,5.57
2023-04-18T15:05:42.779Z,5.63
2023-04-18T15:08:10.963Z,6.18
2023-04-18T15:10:38.178Z,6.00
2023-04-18T15:13:04.673Z,5.35
2023-04-18T15:15:31.395Z,5.05
2023-04-18T15:17:57.880Z,5.50
2023-04-18T15:20:24.326Z,5.50
2023-04-18T15:22:50.785Z,5.80
2023-04-18T15:25:17.587Z,5.05
2023-04-18T15:27:43.965Z,7.68
2023-04-18T15:30:12.082Z,6.25
2023-04-18T15:32:42.142Z,4.32
2023-04-18T15:35:09.898Z,5.30
2023-04-18T15:37:36.696Z,5.80
2023-04-18T15:40:06.962Z,5.85
2023-04-18T15:42:33.639Z,5.60
2023-04-18T15:45:00.344Z,6.05
2023-04-18T15:47:27.098Z,5.38
2023-04-18T15:49:53.693Z,6.10
2023-04-18T15:52:20.171Z,6.07
2023-04-18T15:54:46.566Z,8.57
2023-04-18T15:57:12.963Z,6.63
2023-04-18T15:59:39.362Z,7.75
2023-04-18T16:02:07.256Z,6.57
2023-04-18T16:04:33.895Z,5.85
2023-04-18T16:07:00.715Z,6.05
2023-04-18T16:09:27.200Z,6.22
2023-04-18T16:11:53.719Z,6.25
2023-04-18T16:14:20.114Z,6.63
2023-04-18T17:12:41.444Z,6.53
2023-04-18T17:15:08.088Z,6.22
2023-04-18T17:17:35.450Z,6.93
2023-04-18T17:20:02.011Z,6.85
2023-04-18T17:22:29.432Z,6.35
2023-04-18T17:24:55.893Z,6.57
2023-04-18T17:27:22.359Z,7.63
2023-04-18T17:29:48.798Z,7.28
2023-04-18T17:32:15.550Z,6.95
2023-04-18T17:34:42.002Z,5.80
2023-04-18T17:37:08.403Z,7.18
2023-04-18T17:39:34.822Z,6.53
2023-04-18T17:42:02.126Z,6.85
2023-04-18T17:44:28.619Z,6.40
2023-04-18T17:46:55.069Z,6.43
2023-04-18T17:49:21.760Z,6.28
2023-04-18T17:51:48.175Z,6.20
2023-04-18T17:54:14.594Z,6.00
2023-04-18T17:56:41.145Z,6.28
2023-04-18T17:59:07.608Z,5.75
2023-04-18T18:01:34.738Z,6.43
2023-04-18T18:04:01.774Z,6.60
2023-04-18T18:06:28.329Z,6.53
2023-04-18T18:08:54.768Z,6.93
2023-04-18T18:11:21.405Z,6.53
2023-04-18T18:13:50.684Z,6.40
2023-04-18T18:16:17.186Z,6.07
2023-04-18T18:18:43.744Z,6.43
2023-04-18T18:21:11.419Z,6.43
2023-04-18T18:23:37.914Z,6.45
2023-04-18T18:26:06.509Z,6.75
2023-04-18T18:28:33.270Z,6.40
2023-04-18T18:30:59.671Z,7.28
2023-04-18T18:33:26.202Z,6.75
2023-04-18T18:35:53.579Z,6.53
2023-04-18T18:38:20.054Z,6.45
2023-04-18T18:40:46.472Z,6.43
2023-04-18T18:43:13.021Z,6.15
2023-04-18T18:45:39.522Z,6.45
2023-04-18T18:48:07.269Z,6.43
2023-04-18T18:50:34.020Z,6.50
2023-04-18T18:53:01.848Z,6.22
2023-04-18T18:55:32.736Z,6.40
2023-04-18T18:57:59.130Z,5.47
2023-04-18T19:00:25.568Z,7.18
2023-04-18T19:02:52.248Z,8.73
2023-04-18T19:05:18.956Z,6.47
2023-04-18T19:07:45.377Z,7.18
2023-04-18T19:10:11.830Z,6.38
2023-04-18T19:12:38.273Z,6.65
2023-04-18T19:15:05.893Z,6.75
2023-04-18T19:17:32.322Z,6.30
2023-04-18T19:20:01.101Z,6.55
2023-04-18T19:24:54.417Z,7.10
2023-04-18T19:27:21.083Z,7.13
2023-04-18T19:29:47.597Z,6.47
2023-04-18T19:32:14.007Z,6.60
2023-04-18T19:34:40.409Z,6.85
2023-04-18T19:37:07.252Z,6.97
2023-04-18T19:39:33.726Z,7.05
2023-04-18T19:42:01.847Z,6.07
2023-04-18T19:44:28.224Z,6.13
2023-04-18T19:46:54.672Z,6.80
2023-04-18T19:49:22.373Z,6.80
2023-04-18T19:51:49.030Z,6.97
2023-04-18T19:54:15.936Z,7.32
2023-04-18T19:56:45.756Z,6.00
2023-04-18T19:59:12.534Z,7.13
2023-04-18T20:01:41.934Z,6.63
2023-04-18T20:04:08.614Z,6.45
2023-04-18T20:06:38.160Z,6.18
2023-04-18T20:09:13.186Z,6.40
2023-04-18T20:11:39.825Z,6.07
2023-04-18T20:14:06.299Z,6.13
2023-04-18T20:16:33.445Z,5.78
2023-04-18T20:19:01.631Z,6.88
2023-04-18T20:21:28.008Z,7.68
2023-04-18T20:23:58.183Z,7.18
2023-04-18T20:26:27.326Z,7.55
2023-04-18T20:28:54.920Z,6.55
2023-04-18T20:31:21.334Z,6.82
2023-04-18T20:33:47.800Z,6.10
2023-04-18T20:36:14.499Z,6.88
2023-04-18T20:38:40.926Z,6.32
2023-04-18T20:41:13.593Z,6.32
2023-04-18T20:43:41.103Z,6.05
2023-04-18T20:46:08.084Z,7.13
2023-04-18T20:48:34.472Z,6.20
2023-04-18T20:51:01.133Z,6.30
2023-04-18T20:53:28.921Z,5.97
2023-04-18T20:56:00.575Z,6.03
2023-04-18T20:58:31.541Z,5.85
2023-04-18T21:01:02.200Z,5.93
2023-04-18T21:03:28.783Z,5.70
2023-04-18T21:05:55.805Z,5.93
2023-04-18T21:08:22.193Z,5.95
2023-04-18T21:10:52.310Z,5.80
2023-04-18T21:13:18.751Z,5.60
2023-04-18T21:15:45.294Z,5.57
2023-04-18T21:18:11.771Z,5.32
2023-04-18T21:20:41.010Z,5.88
2023-04-18T21:23:09.655Z,6.05
2023-04-18T21:25:36.048Z,5.50
2023-04-18T21:28:02.470Z,5.45
2023-04-18T21:30:37.925Z,5.35
2023-04-18T21:33:04.449Z,5.57
2023-04-18T21:35:31.143Z,5.13
2023-04-18T21:37:57.830Z,5.32
2023-04-18T21:40:27.857Z,4.85
2023-04-18T21:42:54.294Z,5.30
2023-04-18T21:45:20.933Z,4.65
2023-04-18T21:47:53.090Z,4.93
2023-04-18T21:50:20.252Z,5.13
2023-04-18T21:52:49.000Z,5.72
2023-04-18T21:57:45.894Z,4.70
2023-04-18T22:00:16.910Z,4.32
2023-04-18T22:02:43.639Z,4.63
2023-04-18T22:05:12.697Z,5.38
2023-04-18T22:07:54.549Z,5.03
2023-04-18T22:10:24.750Z,5.28
2023-04-18T22:12:53.945Z,4.43
2023-04-18T22:15:20.403Z,4.40
2023-04-18T22:17:50.224Z,4.80
2023-04-18T22:20:20.100Z,5.03
2023-04-18T22:22:46.535Z,4.45
2023-04-18T22:25:12.949Z,4.47
2023-04-18T22:27:39.560Z,4.45
2023-04-18T22:30:09.489Z,5.18
2023-04-18T22:32:36.090Z,4.82
2023-04-18T22:35:05.465Z,4.78
2023-04-18T22:37:32.017Z,4.53
2023-04-18T22:39:58.670Z,5.20
2023-04-18T22:42:25.056Z,6.03
2023-04-18T22:44:51.466Z,6.60
2023-04-18T22:47:17.859Z,5.68
2023-04-18T22:49:44.387Z,5.45
2023-04-18T22:52:11.867Z,5.07
2023-04-18T22:54:41.753Z,8.93
2023-04-18T22:57:08.231Z,4.45
2023-04-18T22:59:34.806Z,5.10
2023-04-18T23:02:01.699Z,5.40
2023-04-18T23:04:31.173Z,7.03
2023-04-18T23:06:57.672Z,4.97
2023-04-18T23:09:24.568Z,4.45
2023-04-18T23:11:51.046Z,4.70
2023-04-18T23:14:17.502Z,4.18
2023-04-18T23:16:44.126Z,5.07
2023-04-18T23:19:10.786Z,5.00
2023-04-18T23:21:37.258Z,4.78
2023-04-18T23:24:03.857Z,4.95
2023-04-18T23:26:30.345Z,5.20
2023-04-18T23:28:56.790Z,4.63
2023-04-18T23:31:23.298Z,4.97
2023-04-18T23:33:49.764Z,5.13
2023-04-18T23:36:16.333Z,4.95
2023-04-18T23:38:43.112Z,5.50
2023-04-18T23:41:09.682Z,4.82
2023-04-18T23:43:36.142Z,4.70
2023-04-18T23:46:02.755Z,5.60
2023-04-18T23:48:29.218Z,5.45
2023-04-18T23:50:55.613Z,5.50
2023-04-18T23:53:22.381Z,5.15
2023-04-18T23:55:51.028Z,4.40
2023-04-18T23:58:17.644Z,4.70
